createdAt,value
2018-01-26T05:00:39.985Z,1008.3
2018-01-26T05:01:05.514Z,1008.3
2018-01-26T05:01:31.012Z,1008.29
2018-01-26T05:01:56.438Z,1008.29
2018-01-26T05:02:21.936Z,1008.29
2018-01-26T05:02:47.402Z,1008.31
2018-01-26T05:03:12.870Z,1008.33
2018-01-26T05:03:38.312Z,1008.33
2018-01-26T05:04:03.804Z,1008.4
2018-01-26T05:04:29.365Z,1008.35
2018-01-26T05:04:54.817Z,1008.36
2018-01-26T05:05:20.280Z,1008.41
2018-01-26T05:05:45.759Z,1008.39
2018-01-26T05:06:11.261Z,1008.39
2018-01-26T05:06:36.786Z,1008.41
2018-01-26T05:07:02.316Z,1008.41
2018-01-26T05:07:27.808Z,1008.45
2018-01-26T05:07:53.301Z,1008.41
2018-01-26T05:08:18.803Z,1008.42
2018-01-26T05:08:44.282Z,1008.4
2018-01-26T05:09:09.805Z,1008.43
2018-01-26T05:09:35.280Z,1008.44
2018-01-26T05:10:00.841Z,1008.45
2018-01-26T05:10:26.362Z,1008.45
2018-01-26T05:10:51.817Z,1008.46
2018-01-26T05:11:17.310Z,1008.44
2018-01-26T05:11:42.834Z,1008.48
2018-01-26T05:12:08.293Z,1008.47
2018-01-26T05:12:33.790Z,1008.52
2018-01-26T05:12:59.304Z,1008.5
2018-01-26T05:13:24.818Z,1008.54
2018-01-26T05:13:50.226Z,1008.53
2018-01-26T05:14:15.736Z,1008.48
2018-01-26T05:15:29.730Z,1008.52
2018-01-26T05:15:54.973Z,1008.49
2018-01-26T05:16:20.441Z,1008.55
2018-01-26T05:16:45.883Z,1008.5
2018-01-26T05:17:11.330Z,1008.54
2018-01-26T05:18:20.011Z,1008.53
2018-01-26T05:18:45.538Z,1008.52
2018-01-26T05:19:10.945Z,1008.55
2018-01-26T05:19:36.584Z,1008.56
2018-01-26T05:20:02.016Z,1008.58
2018-01-26T05:20:27.494Z,1008.56
2018-01-26T05:20:52.972Z,1008.57
2018-01-26T05:21:18.418Z,1008.56
2018-01-26T05:21:43.966Z,1008.6
2018-01-26T05:22:09.415Z,1008.6
2018-01-26T05:22:34.939Z,1008.56
2018-01-26T05:23:00.389Z,1008.57
2018-01-26T05:23:25.865Z,1008.59
2018-01-26T05:23:51.333Z,1008.58
2018-01-26T05:24:16.841Z,1008.59
2018-01-26T05:24:42.295Z,1008.6
2018-01-26T05:25:07.800Z,1008.6
2018-01-26T05:25:33.291Z,1008.63
2018-01-26T05:25:58.760Z,1008.64
2018-01-26T05:26:24.275Z,1008.63
2018-01-26T05:26:49.719Z,1008.61
2018-01-26T05:27:15.171Z,1008.63
2018-01-26T05:28:13.703Z,1008.59
2018-01-26T05:28:39.184Z,1008.59
2018-01-26T05:29:04.700Z,1008.66
2018-01-26T05:29:30.124Z,1008.66
2018-01-26T05:29:55.596Z,1008.6
2018-01-26T05:30:21.057Z,1008.61
2018-01-26T05:30:46.583Z,1008.61
2018-01-26T05:31:12.034Z,1008.67
2018-01-26T05:31:37.487Z,1008.66
2018-01-26T05:32:02.954Z,1008.64
2018-01-26T05:32:28.442Z,1008.66
2018-01-26T05:32:53.985Z,1008.67
2018-01-26T05:33:19.433Z,1008.69
2018-01-26T05:33:44.922Z,1008.66
2018-01-26T05:34:10.370Z,1008.69
2018-01-26T05:34:35.842Z,1008.73
2018-01-26T05:35:01.361Z,1008.74
2018-01-26T05:35:26.856Z,1008.73
2018-01-26T05:35:52.458Z,1008.74
2018-01-26T05:36:17.824Z,1008.81
2018-01-26T05:36:43.301Z,1008.82
2018-01-26T05:37:08.799Z,1008.78
2018-01-26T05:37:34.303Z,1008.81
2018-01-26T05:37:59.799Z,1008.82
2018-01-26T05:38:25.328Z,1008.82
2018-01-26T05:38:50.885Z,1008.8
2018-01-26T05:39:16.294Z,1008.81
2018-01-26T05:39:41.787Z,1008.82
2018-01-26T05:40:07.278Z,1008.81
2018-01-26T05:40:32.824Z,1008.8
2018-01-26T05:40:58.353Z,1008.79
2018-01-26T05:41:23.875Z,1008.84
2018-01-26T05:41:49.322Z,1008.79
2018-01-26T05:42:14.793Z,1008.79
2018-01-26T05:42:40.289Z,1008.77
2018-01-26T05:43:05.777Z,1008.77
2018-01-26T05:43:31.292Z,1008.78
2018-01-26T05:43:56.748Z,1008.74
2018-01-26T05:44:22.206Z,1008.77
2018-01-26T05:44:47.694Z,1008.73
2018-01-26T05:45:13.253Z,1008.76
2018-01-26T05:45:38.771Z,1008.8
2018-01-26T05:46:04.263Z,1008.77
2018-01-26T05:46:29.731Z,1008.76
2018-01-26T05:46:55.216Z,1008.78
2018-01-26T05:48:14.142Z,1008.8
2018-01-26T05:48:39.711Z,1008.86
2018-01-26T05:49:05.180Z,1008.84
2018-01-26T05:49:30.629Z,1008.86
2018-01-26T05:49:56.132Z,1008.89
2018-01-26T05:50:21.627Z,1008.87
2018-01-26T05:50:47.120Z,1008.87
2018-01-26T05:51:12.600Z,1008.89
2018-01-26T05:51:38.092Z,1008.92
2018-01-26T05:52:03.585Z,1008.89
2018-01-26T05:52:29.118Z,1008.89
2018-01-26T05:52:54.638Z,1008.86
2018-01-26T05:53:20.195Z,1008.88
2018-01-26T05:53:45.668Z,1008.9
2018-01-26T05:54:11.188Z,1008.84
2018-01-26T05:55:19.865Z,1008.87
2018-01-26T05:55:45.372Z,1008.93
2018-01-26T05:56:10.879Z,1008.87
2018-01-26T05:56:36.349Z,1008.89
2018-01-26T05:57:01.866Z,1008.92
2018-01-26T05:57:27.353Z,1008.89
2018-01-26T05:57:52.855Z,1008.9
2018-01-26T05:58:18.365Z,1008.89
2018-01-26T05:58:43.880Z,1008.9
2018-01-26T05:59:09.391Z,1008.87
2018-01-26T05:59:34.886Z,1008.89
2018-01-26T06:00:00.399Z,1008.9
2018-01-26T06:00:25.952Z,1008.9
2018-01-26T06:00:51.490Z,1008.92
2018-01-26T06:01:16.919Z,1008.86
2018-01-26T06:01:42.392Z,1008.88
2018-01-26T06:02:08.168Z,1008.86
2018-01-26T06:02:33.695Z,1008.9
2018-01-26T06:02:59.162Z,1008.9
2018-01-26T06:03:24.656Z,1008.88
2018-01-26T06:03:50.117Z,1008.88
2018-01-26T06:04:15.590Z,1008.87
2018-01-26T06:04:41.167Z,1008.92
2018-01-26T06:05:06.679Z,1008.91
2018-01-26T06:05:32.138Z,1008.92
2018-01-26T06:05:57.748Z,1008.9
2018-01-26T06:06:23.387Z,1008.89
2018-01-26T06:07:42.575Z,1008.88
2018-01-26T06:08:08.036Z,1008.89
2018-01-26T06:08:33.471Z,1008.91
2018-01-26T06:08:58.944Z,1008.88
2018-01-26T06:09:24.425Z,1008.87
2018-01-26T06:09:49.962Z,1008.91
2018-01-26T06:10:15.425Z,1008.84
2018-01-26T06:10:40.883Z,1008.87
2018-01-26T06:11:06.362Z,1008.87
2018-01-26T06:11:31.827Z,1008.84
2018-01-26T06:11:57.367Z,1008.84
2018-01-26T06:12:22.890Z,1008.87
2018-01-26T06:12:48.299Z,1008.86
2018-01-26T06:13:13.779Z,1008.89
2018-01-26T06:14:27.556Z,1008.93
2018-01-26T06:14:53.052Z,1008.94
2018-01-26T06:15:18.526Z,1008.98
2018-01-26T06:15:44.015Z,1008.94
2018-01-26T06:16:09.537Z,1008.95
2018-01-26T06:16:34.992Z,1008.95
2018-01-26T06:17:00.463Z,1008.93
2018-01-26T06:17:25.935Z,1008.97
2018-01-26T06:17:51.581Z,1008.96
2018-01-26T06:18:17.023Z,1008.94
2018-01-26T06:18:42.502Z,1008.97
2018-01-26T06:19:07.955Z,1008.96
2018-01-26T06:19:33.453Z,1008.99
2018-01-26T06:19:58.969Z,1008.96
2018-01-26T06:20:24.420Z,1008.99
2018-01-26T06:20:49.878Z,1008.95
2018-01-26T06:21:15.369Z,1008.98
2018-01-26T06:21:40.933Z,1008.97
2018-01-26T06:22:06.373Z,1008.99
2018-01-26T06:23:10.089Z,1008.94
2018-01-26T06:23:35.710Z,1009.01
2018-01-26T06:24:01.205Z,1009.06
2018-01-26T06:24:26.686Z,1009.03
2018-01-26T06:24:52.286Z,1008.99
2018-01-26T06:25:17.783Z,1009.06
2018-01-26T06:25:43.541Z,1009.05
2018-01-26T06:26:08.741Z,1009.08
2018-01-26T06:26:34.202Z,1009.06
2018-01-26T06:26:59.717Z,1009.02
2018-01-26T06:27:25.205Z,1009.09
2018-01-26T06:27:50.714Z,1009.04
2018-01-26T06:28:16.193Z,1009.05
2018-01-26T06:29:35.248Z,1009.08
2018-01-26T06:30:00.717Z,1009.05
2018-01-26T06:30:26.227Z,1009.1
2018-01-26T06:30:51.708Z,1009.11
2018-01-26T06:31:17.182Z,1009.06
2018-01-26T06:31:42.750Z,1009.06
2018-01-26T06:32:08.259Z,1009.08
2018-01-26T06:32:33.837Z,1009.12
2018-01-26T06:32:59.308Z,1009.07
2018-01-26T06:33:24.754Z,1009.08
2018-01-26T06:33:50.239Z,1009.14
2018-01-26T06:34:15.701Z,1009.13
2018-01-26T06:34:41.222Z,1009.15
2018-01-26T06:35:06.618Z,1009.18
2018-01-26T06:36:05.146Z,1009.19
2018-01-26T06:36:30.637Z,1009.21
2018-01-26T06:37:49.551Z,1009.2
2018-01-26T06:38:15.051Z,1009.22
2018-01-26T06:38:40.520Z,1009.23
2018-01-26T06:39:06.032Z,1009.23
2018-01-26T06:39:31.471Z,1009.27
2018-01-26T06:39:56.926Z,1009.25
2018-01-26T06:40:22.433Z,1009.29
2018-01-26T06:40:48.072Z,1009.24
2018-01-26T06:41:13.570Z,1009.26
2018-01-26T06:41:39.159Z,1009.28
2018-01-26T06:42:04.628Z,1009.31
2018-01-26T06:42:30.118Z,1009.32
2018-01-26T06:42:55.621Z,1009.36
2018-01-26T06:44:09.469Z,1009.38
2018-01-26T06:44:34.903Z,1009.39
2018-01-26T06:45:00.419Z,1009.41
2018-01-26T06:46:09.873Z,1009.44
2018-01-26T06:46:35.372Z,1009.44
2018-01-26T06:47:00.866Z,1009.48
2018-01-26T06:47:26.330Z,1009.46
2018-01-26T06:47:51.821Z,1009.48
2018-01-26T06:48:17.304Z,1009.5
2018-01-26T06:48:42.767Z,1009.5
2018-01-26T06:49:08.234Z,1009.5
2018-01-26T06:49:33.709Z,1009.55
2018-01-26T06:49:59.158Z,1009.49
2018-01-26T06:50:25.769Z,1009.48
2018-01-26T06:50:51.266Z,1009.49
2018-01-26T06:51:16.761Z,1009.5
2018-01-26T06:52:15.294Z,1009.5
2018-01-26T06:52:40.778Z,1009.47
2018-01-26T06:53:06.252Z,1009.5
2018-01-26T06:53:31.727Z,1009.48
2018-01-26T06:53:57.224Z,1009.41
2018-01-26T06:54:22.714Z,1009.45
2018-01-26T06:54:48.244Z,1009.44
2018-01-26T06:55:13.787Z,1009.45
2018-01-26T06:55:39.236Z,1009.47
2018-01-26T06:56:04.748Z,1009.42
2018-01-26T06:56:30.218Z,1009.41
2018-01-26T06:56:55.660Z,1009.42
2018-01-26T06:57:21.142Z,1009.44
2018-01-26T06:57:46.631Z,1009.41
2018-01-26T06:58:55.419Z,1009.37
2018-01-26T06:59:20.925Z,1009.39
2018-01-26T06:59:46.396Z,1009.39
2018-01-26T07:00:12.007Z,1009.4
2018-01-26T07:00:37.398Z,1009.4
2018-01-26T07:01:02.866Z,1009.37
2018-01-26T07:02:06.456Z,1009.39
2018-01-26T07:02:31.896Z,1009.38
2018-01-26T07:02:57.385Z,1009.38
2018-01-26T07:03:22.863Z,1009.36
2018-01-26T07:03:48.335Z,1009.37
2018-01-26T07:04:13.821Z,1009.34
2018-01-26T07:04:39.305Z,1009.36
2018-01-26T07:05:04.767Z,1009.38
2018-01-26T07:05:30.228Z,1009.35
2018-01-26T07:05:55.689Z,1009.36
2018-01-26T07:06:21.162Z,1009.38
2018-01-26T07:06:46.639Z,1009.37
2018-01-26T07:07:12.144Z,1009.38
2018-01-26T07:07:37.665Z,1009.37
2018-01-26T07:08:03.166Z,1009.41
2018-01-26T07:08:28.682Z,1009.42
2018-01-26T07:08:54.077Z,1009.41
2018-01-26T07:09:19.553Z,1009.41
2018-01-26T07:09:45.084Z,1009.39
2018-01-26T07:10:10.607Z,1009.46
2018-01-26T07:11:19.393Z,1009.45
2018-01-26T07:11:44.874Z,1009.49
2018-01-26T07:12:10.356Z,1009.52
2018-01-26T07:12:35.858Z,1009.55
2018-01-26T07:13:01.316Z,1009.59
2018-01-26T07:13:26.845Z,1009.57
2018-01-26T07:13:52.306Z,1009.56
2018-01-26T07:14:17.801Z,1009.61
2018-01-26T07:14:43.265Z,1009.62
2018-01-26T07:15:08.711Z,1009.63
2018-01-26T07:15:34.213Z,1009.65
2018-01-26T07:15:59.708Z,1009.66
2018-01-26T07:16:25.228Z,1009.65
2018-01-26T07:16:50.686Z,1009.66
2018-01-26T07:18:04.519Z,1009.69
2018-01-26T07:18:30.007Z,1009.67
2018-01-26T07:18:55.501Z,1009.64
2018-01-26T07:19:20.981Z,1009.65
2018-01-26T07:19:46.468Z,1009.66
2018-01-26T07:20:11.974Z,1009.72
2018-01-26T07:20:37.439Z,1009.69
2018-01-26T07:21:02.882Z,1009.7
2018-01-26T07:22:06.470Z,1009.71
2018-01-26T07:22:31.953Z,1009.77
2018-01-26T07:22:57.425Z,1009.8
2018-01-26T07:23:22.874Z,1009.78
2018-01-26T07:24:21.406Z,1009.81
2018-01-26T07:24:46.899Z,1009.87
2018-01-26T07:25:12.395Z,1009.85
2018-01-26T07:25:37.874Z,1009.84
2018-01-26T07:26:03.329Z,1009.86
2018-01-26T07:26:28.821Z,1009.89
2018-01-26T07:26:54.286Z,1009.88
2018-01-26T07:27:19.761Z,1009.86
2018-01-26T07:27:45.266Z,1009.93
2018-01-26T07:28:10.748Z,1009.92
2018-01-26T07:28:36.196Z,1009.9
2018-01-26T07:29:01.710Z,1009.91
2018-01-26T07:29:27.181Z,1009.96
2018-01-26T07:29:52.627Z,1009.93
2018-01-26T07:30:18.123Z,1009.96
2018-01-26T07:30:43.578Z,1009.9
2018-01-26T07:31:09.084Z,1009.92
2018-01-26T07:31:34.583Z,1009.89
2018-01-26T07:32:00.137Z,1009.9
2018-01-26T07:32:25.635Z,1009.91
2018-01-26T07:32:51.098Z,1009.9
2018-01-26T07:33:16.576Z,1009.92
2018-01-26T07:33:42.099Z,1009.92
2018-01-26T07:34:07.596Z,1009.91
2018-01-26T07:34:33.030Z,1009.9
2018-01-26T07:34:58.535Z,1009.91
2018-01-26T07:36:07.239Z,1009.9
2018-01-26T07:36:32.776Z,1009.9
2018-01-26T07:36:58.270Z,1009.97
2018-01-26T07:37:23.740Z,1009.92
2018-01-26T07:37:49.222Z,1009.94
2018-01-26T07:38:14.739Z,1009.92
2018-01-26T07:38:40.150Z,1009.98
2018-01-26T07:39:05.623Z,1009.97
2018-01-26T07:39:31.114Z,1010.05
2018-01-26T07:39:56.656Z,1010.04
2018-01-26T07:40:22.133Z,1010
2018-01-26T07:40:47.616Z,1010.08
2018-01-26T07:41:13.089Z,1010.11
2018-01-26T07:41:38.602Z,1010.1
2018-01-26T07:42:04.103Z,1010.14
2018-01-26T07:42:29.584Z,1010.14
2018-01-26T07:42:55.079Z,1010.17
2018-01-26T07:43:20.512Z,1010.16
2018-01-26T07:43:46.025Z,1010.18
2018-01-26T07:44:11.502Z,1010.21
2018-01-26T07:44:37.071Z,1010.24
2018-01-26T07:45:02.581Z,1010.2
2018-01-26T07:45:28.022Z,1010.27
2018-01-26T07:45:53.538Z,1010.28
2018-01-26T07:46:19.002Z,1010.23
2018-01-26T07:47:22.612Z,1010.3
2018-01-26T07:47:48.101Z,1010.32
2018-01-26T07:49:06.985Z,1010.34
2018-01-26T07:49:32.478Z,1010.36
2018-01-26T07:50:51.420Z,1010.35
2018-01-26T07:51:16.864Z,1010.38
2018-01-26T07:51:42.324Z,1010.35
2018-01-26T07:52:07.812Z,1010.33
2018-01-26T07:52:33.271Z,1010.33
2018-01-26T07:52:58.751Z,1010.38
2018-01-26T07:53:24.247Z,1010.4
2018-01-26T07:53:49.715Z,1010.37
2018-01-26T07:54:15.210Z,1010.39
2018-01-26T07:54:40.753Z,1010.35
2018-01-26T07:55:06.210Z,1010.38
2018-01-26T07:55:31.708Z,1010.38
2018-01-26T07:55:57.179Z,1010.42
2018-01-26T07:56:22.677Z,1010.4
2018-01-26T07:56:48.120Z,1010.41
2018-01-26T07:57:13.563Z,1010.42
2018-01-26T07:57:39.088Z,1010.41
2018-01-26T07:58:04.681Z,1010.4
2018-01-26T07:59:03.193Z,1010.47
2018-01-26T07:59:28.696Z,1010.47
2018-01-26T07:59:54.104Z,1010.47
2018-01-26T08:00:19.593Z,1010.5
2018-01-26T08:00:45.056Z,1010.52
2018-01-26T08:01:10.523Z,1010.56
2018-01-26T08:01:36.001Z,1010.54
2018-01-26T08:02:01.533Z,1010.51
2018-01-26T08:02:26.995Z,1010.5
2018-01-26T08:02:52.472Z,1010.51
2018-01-26T08:03:17.971Z,1010.56
2018-01-26T08:03:43.439Z,1010.55
2018-01-26T08:04:08.909Z,1010.53
2018-01-26T08:04:34.389Z,1010.55
2018-01-26T08:04:59.835Z,1010.5
2018-01-26T08:06:14.606Z,1010.54
2018-01-26T08:06:40.064Z,1010.54
2018-01-26T08:07:05.596Z,1010.6
2018-01-26T08:07:31.048Z,1010.64
2018-01-26T08:07:56.490Z,1010.66
2018-01-26T08:08:21.962Z,1010.65
2018-01-26T08:08:47.453Z,1010.62
2018-01-26T08:09:12.921Z,1010.64
2018-01-26T08:09:38.425Z,1010.7
2018-01-26T08:10:03.904Z,1010.73
2018-01-26T08:10:29.413Z,1010.68
2018-01-26T08:10:54.885Z,1010.66
2018-01-26T08:11:20.366Z,1010.71
2018-01-26T08:11:45.838Z,1010.69
2018-01-26T08:12:11.310Z,1010.64
2018-01-26T08:12:36.782Z,1010.65
2018-01-26T08:13:02.239Z,1010.63
2018-01-26T08:13:27.655Z,1010.66
2018-01-26T08:13:53.143Z,1010.6
2018-01-26T08:14:18.885Z,1010.61
2018-01-26T08:14:44.350Z,1010.62
2018-01-26T08:15:09.820Z,1010.6
2018-01-26T08:15:35.266Z,1010.56
2018-01-26T08:16:00.779Z,1010.59
2018-01-26T08:16:26.187Z,1010.64
2018-01-26T08:16:51.649Z,1010.62
2018-01-26T08:17:17.139Z,1010.64
2018-01-26T08:17:42.607Z,1010.62
2018-01-26T08:18:08.127Z,1010.68
2018-01-26T08:18:33.584Z,1010.71
2018-01-26T08:19:38.165Z,1010.78
2018-01-26T08:20:03.740Z,1010.84
2018-01-26T08:20:29.147Z,1010.79
2018-01-26T08:20:54.638Z,1010.85
2018-01-26T08:21:20.080Z,1010.84
2018-01-26T08:21:45.573Z,1010.87
2018-01-26T08:22:11.227Z,1010.84
2018-01-26T08:22:36.681Z,1010.86
2018-01-26T08:23:02.098Z,1010.83
2018-01-26T08:23:27.582Z,1010.83
2018-01-26T08:23:53.052Z,1010.83
2018-01-26T08:24:18.503Z,1010.84
2018-01-26T08:24:44.010Z,1010.8
2018-01-26T08:25:09.469Z,1010.81
2018-01-26T08:25:34.959Z,1010.8
2018-01-26T08:26:53.851Z,1010.8
2018-01-26T08:27:19.327Z,1010.82
2018-01-26T08:27:44.774Z,1010.87
2018-01-26T08:28:10.284Z,1010.83
2018-01-26T08:29:18.895Z,1010.87
2018-01-26T08:29:44.403Z,1010.84
2018-01-26T08:30:09.877Z,1010.88
2018-01-26T08:30:35.390Z,1010.84
2018-01-26T08:31:00.922Z,1010.83
2018-01-26T08:31:26.407Z,1010.83
2018-01-26T08:31:51.882Z,1010.77
2018-01-26T08:32:17.392Z,1010.74
2018-01-26T08:32:42.926Z,1010.83
2018-01-26T08:33:08.356Z,1010.77
2018-01-26T08:33:33.836Z,1010.74
2018-01-26T08:33:59.328Z,1010.76
2018-01-26T08:34:24.815Z,1010.7
2018-01-26T08:34:50.306Z,1010.76
2018-01-26T08:35:15.794Z,1010.72
2018-01-26T08:35:41.251Z,1010.67
2018-01-26T08:36:06.720Z,1010.7
2018-01-26T08:36:32.266Z,1010.74
2018-01-26T08:36:57.731Z,1010.68
2018-01-26T08:37:23.266Z,1010.68
2018-01-26T08:37:48.755Z,1010.65
2018-01-26T08:38:14.193Z,1010.63
2018-01-26T08:38:39.659Z,1010.65
2018-01-26T08:39:05.124Z,1010.66
2018-01-26T08:39:30.668Z,1010.69
2018-01-26T08:39:56.171Z,1010.64
2018-01-26T08:40:21.697Z,1010.7
2018-01-26T08:40:47.121Z,1010.73
2018-01-26T08:41:12.640Z,1010.67
2018-01-26T08:41:38.089Z,1010.74
2018-01-26T08:42:03.559Z,1010.72
2018-01-26T08:42:28.978Z,1010.76
2018-01-26T08:42:54.453Z,1010.78
2018-01-26T08:43:19.930Z,1010.81
2018-01-26T08:43:45.440Z,1010.76
2018-01-26T08:44:10.873Z,1010.8
2018-01-26T08:44:36.364Z,1010.85
2018-01-26T08:45:01.872Z,1010.84
2018-01-26T08:45:27.299Z,1010.85
2018-01-26T08:45:52.764Z,1010.86
2018-01-26T08:46:18.268Z,1010.88
2018-01-26T08:46:43.762Z,1010.85
2018-01-26T08:47:09.229Z,1010.87
2018-01-26T08:47:34.706Z,1010.87
2018-01-26T08:48:00.135Z,1010.87
2018-01-26T08:48:25.636Z,1010.91
2018-01-26T08:48:51.099Z,1010.9
2018-01-26T08:49:16.648Z,1010.88
2018-01-26T08:50:30.435Z,1010.93
2018-01-26T08:50:55.898Z,1010.95
2018-01-26T08:51:21.386Z,1010.96
2018-01-26T08:51:46.891Z,1010.95
2018-01-26T08:52:12.422Z,1011.01
2018-01-26T08:52:37.863Z,1010.99
2018-01-26T08:53:03.348Z,1011
2018-01-26T08:53:28.842Z,1011.02
2018-01-26T08:53:54.300Z,1011.04
2018-01-26T08:54:19.792Z,1011
2018-01-26T08:54:45.270Z,1011.01
2018-01-26T08:55:10.761Z,1010.99
2018-01-26T08:55:36.255Z,1010.99
2018-01-26T08:56:01.688Z,1011.01
2018-01-26T08:56:27.188Z,1011
2018-01-26T08:56:52.641Z,1010.99
2018-01-26T08:57:18.153Z,1010.95
2018-01-26T08:57:43.635Z,1011
2018-01-26T08:58:09.090Z,1010.96
2018-01-26T08:58:34.556Z,1010.93
2018-01-26T08:59:00.030Z,1010.97
2018-01-26T08:59:25.476Z,1010.96
2018-01-26T08:59:50.951Z,1010.94
2018-01-26T09:00:59.870Z,1010.97
2018-01-26T09:01:25.336Z,1010.95
2018-01-26T09:01:50.816Z,1010.98
2018-01-26T09:02:16.254Z,1010.94
2018-01-26T09:02:41.750Z,1010.97
2018-01-26T09:03:07.222Z,1010.96
2018-01-26T09:03:32.722Z,1011
2018-01-26T09:03:58.181Z,1010.97
2018-01-26T09:04:23.709Z,1010.98
2018-01-26T09:04:49.166Z,1011.02
2018-01-26T09:05:14.619Z,1010.97
2018-01-26T09:05:40.103Z,1011.01
2018-01-26T09:06:05.624Z,1010.97
2018-01-26T09:06:31.056Z,1010.97
2018-01-26T09:06:56.543Z,1010.98
2018-01-26T09:07:22.048Z,1010.96
2018-01-26T09:07:47.585Z,1010.98
2018-01-26T09:08:13.047Z,1010.99
2018-01-26T09:08:38.549Z,1011
2018-01-26T09:09:04.083Z,1011.01
2018-01-26T09:09:29.608Z,1011.03
2018-01-26T09:09:55.084Z,1011.04
2018-01-26T09:10:20.586Z,1011.03
2018-01-26T09:10:46.058Z,1011.06
2018-01-26T09:11:11.569Z,1011.05
2018-01-26T09:11:37.081Z,1011.08
2018-01-26T09:12:02.526Z,1011.07
2018-01-26T09:12:27.972Z,1011.1
2018-01-26T09:12:53.453Z,1011.08
2018-01-26T09:13:18.954Z,1011.08
2018-01-26T09:13:44.483Z,1011.09
2018-01-26T09:14:53.170Z,1011.15
2018-01-26T09:15:18.633Z,1011.1
2018-01-26T09:15:44.172Z,1011.12
2018-01-26T09:16:09.638Z,1011.13
2018-01-26T09:16:35.191Z,1011.14
2018-01-26T09:17:00.722Z,1011.09
2018-01-26T09:17:26.289Z,1011.08
2018-01-26T09:17:51.710Z,1011.09
2018-01-26T09:18:17.272Z,1011.07
2018-01-26T09:18:42.764Z,1011.04
2018-01-26T09:19:08.260Z,1011.05
2018-01-26T09:19:33.727Z,1011
2018-01-26T09:19:59.221Z,1011.02
2018-01-26T09:20:24.679Z,1011.04
2018-01-26T09:20:50.229Z,1011.04
2018-01-26T09:21:15.755Z,1011.04
2018-01-26T09:21:41.234Z,1011.08
2018-01-26T09:22:06.734Z,1011.08
2018-01-26T09:22:32.188Z,1011.08
2018-01-26T09:22:57.827Z,1011.11
2018-01-26T09:23:23.430Z,1011.11
2018-01-26T09:24:37.221Z,1011.12
2018-01-26T09:25:02.718Z,1011.11
2018-01-26T09:25:28.216Z,1011.13
2018-01-26T09:25:53.668Z,1011.17
2018-01-26T09:26:19.164Z,1011.21
2018-01-26T09:26:44.663Z,1011.23
2018-01-26T09:27:10.157Z,1011.2
2018-01-26T09:27:35.670Z,1011.22
2018-01-26T09:28:01.219Z,1011.25
2018-01-26T09:28:26.691Z,1011.24
2018-01-26T09:28:52.249Z,1011.24
2018-01-26T09:29:17.739Z,1011.26
2018-01-26T09:29:43.255Z,1011.22
2018-01-26T09:30:08.785Z,1011.24
2018-01-26T09:30:34.266Z,1011.25
2018-01-26T09:30:59.783Z,1011.27
2018-01-26T09:31:25.313Z,1011.31
2018-01-26T09:31:50.816Z,1011.29
2018-01-26T09:32:16.330Z,1011.31
2018-01-26T09:33:19.920Z,1011.35
2018-01-26T09:33:45.414Z,1011.35
2018-01-26T09:34:10.866Z,1011.37
2018-01-26T09:34:36.334Z,1011.39
2018-01-26T09:35:01.880Z,1011.35
2018-01-26T09:36:10.602Z,1011.41
2018-01-26T09:36:36.114Z,1011.45
2018-01-26T09:37:01.897Z,1011.47
2018-01-26T09:37:27.354Z,1011.4
2018-01-26T09:37:52.855Z,1011.43
2018-01-26T09:38:18.361Z,1011.44
2018-01-26T09:38:43.829Z,1011.48
2018-01-26T09:39:09.294Z,1011.46
2018-01-26T09:40:28.962Z,1011.46
2018-01-26T09:40:54.447Z,1011.47
2018-01-26T09:41:19.929Z,1011.49
2018-01-26T09:41:45.480Z,1011.5
2018-01-26T09:42:10.960Z,1011.53
2018-01-26T09:42:36.468Z,1011.51
2018-01-26T09:43:02.000Z,1011.53
2018-01-26T09:43:27.605Z,1011.52
2018-01-26T09:44:31.186Z,1011.52
2018-01-26T09:44:56.657Z,1011.54
2018-01-26T09:45:22.121Z,1011.53
2018-01-26T09:45:47.706Z,1011.55
2018-01-26T09:46:13.173Z,1011.53
2018-01-26T09:46:38.682Z,1011.56
2018-01-26T09:47:04.211Z,1011.55
2018-01-26T09:48:07.921Z,1011.55
2018-01-26T09:49:26.830Z,1011.61
2018-01-26T09:49:52.328Z,1011.59
2018-01-26T09:50:17.783Z,1011.59
2018-01-26T09:50:43.255Z,1011.59
2018-01-26T09:51:08.728Z,1011.61
2018-01-26T09:51:34.320Z,1011.65
2018-01-26T09:51:59.814Z,1011.68
2018-01-26T09:52:25.279Z,1011.68
2018-01-26T09:52:50.747Z,1011.63
2018-01-26T09:53:16.248Z,1011.66
2018-01-26T09:54:19.844Z,1011.66
2018-01-26T09:54:45.318Z,1011.67
2018-01-26T09:55:10.789Z,1011.66
2018-01-26T09:56:14.380Z,1011.65
2018-01-26T09:56:39.859Z,1011.67
2018-01-26T09:57:05.362Z,1011.69
2018-01-26T09:57:30.835Z,1011.68
2018-01-26T09:57:56.285Z,1011.71
2018-01-26T09:58:21.772Z,1011.72
2018-01-26T09:58:47.254Z,1011.76
2018-01-26T09:59:12.764Z,1011.78
2018-01-26T10:00:16.392Z,1011.8
2018-01-26T10:00:41.899Z,1011.79
2018-01-26T10:01:07.391Z,1011.78
2018-01-26T10:02:16.084Z,1011.78
2018-01-26T10:02:41.549Z,1011.78
2018-01-26T10:03:07.076Z,1011.76
2018-01-26T10:03:32.550Z,1011.78
2018-01-26T10:03:58.012Z,1011.8
2018-01-26T10:04:23.477Z,1011.8
2018-01-26T10:04:49.033Z,1011.77
2018-01-26T10:05:14.543Z,1011.83
2018-01-26T10:05:40.003Z,1011.76
2018-01-26T10:06:05.471Z,1011.8
2018-01-26T10:06:30.970Z,1011.81
2018-01-26T10:06:56.423Z,1011.82
2018-01-26T10:07:21.888Z,1011.85
2018-01-26T10:07:47.368Z,1011.87
2018-01-26T10:08:12.832Z,1011.81
2018-01-26T10:08:38.332Z,1011.81
2018-01-26T10:09:03.865Z,1011.86
2018-01-26T10:09:29.314Z,1011.88
2018-01-26T10:09:54.819Z,1011.89
2018-01-26T10:10:20.302Z,1011.84
2018-01-26T10:10:45.768Z,1011.83
2018-01-26T10:11:11.230Z,1011.84
2018-01-26T10:11:36.749Z,1011.88
2018-01-26T10:12:02.231Z,1011.82
2018-01-26T10:12:27.744Z,1011.85
2018-01-26T10:13:36.447Z,1011.83
2018-01-26T10:14:01.948Z,1011.84
2018-01-26T10:14:27.434Z,1011.85
2018-01-26T10:14:52.923Z,1011.84
2018-01-26T10:15:18.409Z,1011.85
2018-01-26T10:15:43.879Z,1011.85
2018-01-26T10:16:09.331Z,1011.89
2018-01-26T10:16:34.822Z,1011.85
2018-01-26T10:17:00.332Z,1011.88
2018-01-26T10:17:25.803Z,1011.86
2018-01-26T10:17:51.276Z,1011.88
2018-01-26T10:18:16.751Z,1011.88
2018-01-26T10:18:42.256Z,1011.87
2018-01-26T10:19:07.762Z,1011.89
2018-01-26T10:19:33.215Z,1011.85
2018-01-26T10:19:58.744Z,1011.84
2018-01-26T10:20:24.239Z,1011.85
2018-01-26T10:20:49.739Z,1011.88
2018-01-26T10:21:15.225Z,1011.9
2018-01-26T10:21:40.725Z,1011.88
2018-01-26T10:22:06.223Z,1011.85
2018-01-26T10:22:31.669Z,1011.85
2018-01-26T10:22:57.179Z,1011.86
2018-01-26T10:23:22.645Z,1011.83
2018-01-26T10:23:48.183Z,1011.83
2018-01-26T10:24:13.635Z,1011.85
2018-01-26T10:24:39.148Z,1011.9
2018-01-26T10:25:04.701Z,1011.89
2018-01-26T10:25:30.254Z,1011.87
2018-01-26T10:25:55.831Z,1011.89
2018-01-26T10:26:21.324Z,1011.85
2018-01-26T10:26:46.777Z,1011.85
2018-01-26T10:27:12.345Z,1011.83
2018-01-26T10:27:37.783Z,1011.83
2018-01-26T10:28:41.407Z,1011.86
2018-01-26T10:29:06.865Z,1011.85
2018-01-26T10:29:32.375Z,1011.89
2018-01-26T10:29:57.897Z,1011.85
2018-01-26T10:30:23.388Z,1011.83
2018-01-26T10:30:48.872Z,1011.84
2018-01-26T10:31:14.385Z,1011.86
2018-01-26T10:31:39.926Z,1011.82
2018-01-26T10:32:05.436Z,1011.88
2018-01-26T10:32:30.873Z,1011.87
2018-01-26T10:32:56.347Z,1011.9
2018-01-26T10:33:21.864Z,1011.87
2018-01-26T10:33:47.328Z,1011.91
2018-01-26T10:34:12.790Z,1011.92
2018-01-26T10:34:38.309Z,1011.96
2018-01-26T10:35:03.767Z,1011.92
2018-01-26T10:35:29.283Z,1011.92
2018-01-26T10:36:43.083Z,1011.94
2018-01-26T10:37:08.619Z,1011.93
2018-01-26T10:38:17.264Z,1011.89
2018-01-26T10:38:42.761Z,1011.92
2018-01-26T10:39:08.287Z,1011.93
2018-01-26T10:39:33.764Z,1011.95
2018-01-26T10:39:59.271Z,1011.89
2018-01-26T10:40:24.794Z,1011.92
2018-01-26T10:40:50.241Z,1011.9
2018-01-26T10:41:15.740Z,1011.91
2018-01-26T10:41:41.202Z,1011.88
2018-01-26T10:42:06.729Z,1011.89
2018-01-26T10:42:32.251Z,1011.88
2018-01-26T10:42:57.723Z,1011.93
2018-01-26T10:43:23.234Z,1011.92
2018-01-26T10:43:48.669Z,1011.9
2018-01-26T10:44:14.207Z,1011.87